Time;durP1;ratioP1;P1;durP2;ratioP2;P2;SDS_P1;SDS_P2;PMS_P1;PMS_P2;Temp;Humidity;BMP_temperature;BMP_pressure;BME280_temperature;BME280_humidity;BME280_pressure;Samples;Min_cycle;Max_cycle;Signal;HPM_P1;HPM_P2
2021/05/05 00:01:29;;;;;;;12.80;8.60;;;;;;;14.36;73.50;100339.34;5011183;28;20180;-69
2021/05/05 00:03:54;;;;;;;13.85;8.85;;;;;;;14.38;73.68;100332.47;5010620;28;20108;-69
2021/05/05 00:06:20;;;;;;;10.02;8.43;;;;;;;14.10;74.07;100299.03;5010757;28;20108;-70
2021/05/05 00:08:46;;;;;;;13.10;9.05;;;;;;;14.50;73.37;100342.19;5011502;28;20424;-70
2021/05/05 00:11:11;;;;;;;12.70;8.18;;;;;;;14.45;72.91;100332.59;5012207;28;20114;-67
2021/05/05 00:13:37;;;;;;;11.38;8.25;;;;;;;14.39;72.97;100333.34;5012088;28;20049;-68
2021/05/05 00:16:04;;;;;;;11.25;8.57;;;;;;;14.23;72.88;100291.50;5010817;28;20135;-68
2021/05/05 00:18:30;;;;;;;14.13;9.00;;;;;;;14.43;73.02;100329.97;5012244;28;20535;-68
2021/05/05 00:20:57;;;;;;;14.15;8.45;;;;;;;14.43;73.02;100336.88;5012034;28;20066;-68
2021/05/05 00:23:22;;;;;;;12.30;8.95;;;;;;;14.42;73.16;100314.34;5011952;28;20088;-68
2021/05/05 00:25:48;;;;;;;12.57;9.25;;;;;;;14.53;73.32;100326.69;5012067;28;20081;-68
2021/05/05 00:28:13;;;;;;;10.32;8.50;;;;;;;14.55;73.23;100314.63;5012036;28;20480;-69
2021/05/05 00:30:39;;;;;;;19.63;8.60;;;;;;;14.54;73.45;100311.97;5011780;28;20029;-69
2021/05/05 00:33:05;;;;;;;14.13;9.35;;;;;;;14.47;73.49;100317.91;5011758;28;20029;-68
2021/05/05 00:35:31;;;;;;;12.63;8.70;;;;;;;14.48;73.76;100323.13;5011845;28;20079;-68
2021/05/05 00:37:56;;;;;;;13.10;8.98;;;;;;;14.26;73.59;100284.63;5011937;28;20033;-68
2021/05/05 00:40:22;;;;;;;13.52;9.77;;;;;;;14.40;73.62;100304.81;5010724;28;20037;-68
2021/05/05 00:42:47;;;;;;;12.10;9.10;;;;;;;14.26;73.91;100290.69;5010465;28;20092;-68
2021/05/05 00:45:15;;;;;;;13.88;9.43;;;;;;;14.34;74.23;100290.81;5011952;28;20026;-68
2021/05/05 00:47:41;;;;;;;14.35;10.07;;;;;;;14.34;74.09;100280.44;5011567;28;20030;-68
2021/05/05 00:50:10;;;;;;;15.07;9.77;;;;;;;14.17;74.73;100246.38;5011668;28;20104;-71
2021/05/05 00:52:36;;;;;;;13.10;9.03;;;;;;;14.36;74.05;100281.34;5011628;28;20405;-68
2021/05/05 00:55:04;;;;;;;13.00;9.63;;;;;;;14.30;74.46;100276.91;5011862;28;20108;-68
2021/05/05 00:57:29;;;;;;;11.95;9.52;;;;;;;14.05;74.93;100253.06;5011827;28;20033;-68
2021/05/05 00:59:55;;;;;;;13.60;9.73;;;;;;;14.16;75.06;100266.25;5011612;28;20029;-68
2021/05/05 01:02:21;;;;;;;16.92;10.00;;;;;;;14.26;74.75;100274.25;5011347;28;20034;-68
2021/05/05 01:04:47;;;;;;;13.80;10.45;;;;;;;14.15;75.06;100281.81;5011439;28;20080;-68
2021/05/05 01:07:12;;;;;;;12.48;10.02;;;;;;;14.19;74.82;100276.72;5011545;28;20030;-71
2021/05/05 01:09:42;;;;;;;13.27;10.30;;;;;;;14.04;75.18;100289.38;5011641;28;20404;-68
2021/05/05 01:12:09;;;;;;;12.52;10.60;;;;;;;13.94;75.30;100292.66;5011506;28;20026;-68
2021/05/05 01:14:34;;;;;;;13.90;10.52;;;;;;;13.83;75.38;100279.44;5014788;28;20133;-69
2021/05/05 01:17:00;;;;;;;17.10;11.60;;;;;;;13.77;75.67;100295.78;5015423;28;20484;-68
2021/05/05 01:19:25;;;;;;;14.05;11.65;;;;;;;13.73;76.11;100294.84;5015383;28;20037;-71
2021/05/05 01:21:51;;;;;;;16.83;11.40;;;;;;;13.68;76.13;100291.28;5015243;28;20087;-68
2021/05/05 01:24:16;;;;;;;13.55;11.45;;;;;;;13.55;76.87;100289.25;5015401;28;20118;-69
2021/05/05 01:26:42;;;;;;;15.82;12.43;;;;;;;13.34;77.86;100281.84;5015481;28;20030;-68
2021/05/05 01:29:10;;;;;;;14.52;11.48;;;;;;;13.21;78.63;100288.47;5015243;28;20484;-68
2021/05/05 01:31:36;;;;;;;15.98;12.38;;;;;;;13.22;78.77;100287.59;5015127;28;20113;-68
2021/05/05 01:34:02;;;;;;;16.92;12.65;;;;;;;12.99;78.87;100250.78;5015185;28;20117;-68
2021/05/05 01:36:36;;;;;;;15.73;12.10;;;;;;;13.20;79.08;100287.56;5015341;28;20026;-68
2021/05/05 01:39:10;;;;;;;15.45;12.48;;;;;;;13.32;78.54;100273.13;5015247;28;20033;-69
2021/05/05 01:41:35;;;;;;;15.15;12.10;;;;;;;13.38;78.31;100281.97;5015434;28;20025;-68
2021/05/05 01:44:01;;;;;;;14.82;11.18;;;;;;;13.21;77.48;100213.28;5015125;28;20041;-69
2021/05/05 01:46:27;;;;;;;15.98;12.48;;;;;;;13.67;77.65;100262.69;5014888;28;20030;-67
2021/05/05 01:48:52;;;;;;;16.13;13.00;;;;;;;13.56;77.23;100255.56;5029192;28;20055;-68
2021/05/05 01:51:18;;;;;;;16.08;12.40;;;;;;;13.65;77.46;100254.88;5014982;28;20026;-68
2021/05/05 01:53:43;;;;;;;14.57;12.25;;;;;;;13.51;76.88;100228.66;5014613;28;20034;-73
2021/05/05 01:56:09;;;;;;;16.35;12.25;;;;;;;13.62;76.91;100259.13;5014817;28;20030;-68
2021/05/05 01:58:36;;;;;;;14.43;12.38;;;;;;;13.58;76.92;100260.78;5014797;28;20101;-68
2021/05/05 02:01:01;;;;;;;18.45;12.15;;;;;;;13.69;76.87;100266.19;5029290;28;20044;-68
2021/05/05 02:03:27;;;;;;;14.73;11.75;;;;;;;13.31;76.69;100232.50;5014736;28;20540;-68
2021/05/05 02:05:53;;;;;;;15.85;11.57;;;;;;;13.56;76.63;100275.44;5013385;28;20568;-69
2021/05/05 02:08:20;;;;;;;13.70;11.60;;;;;;;13.54;76.40;100277.97;5006538;28;20117;-71
2021/05/05 02:10:46;;;;;;;15.05;11.88;;;;;;;13.45;76.47;100276.94;4994893;28;20026;-67
2021/05/05 02:13:12;;;;;;;14.88;11.27;;;;;;;13.44;76.47;100270.84;4994946;28;20495;-69
2021/05/05 02:15:38;;;;;;;14.48;10.90;;;;;;;13.43;76.89;100263.91;4995071;28;20026;-68
2021/05/05 02:18:06;;;;;;;15.32;11.95;;;;;;;13.07;77.64;100224.22;4994670;28;20117;-68
2021/05/05 02:20:31;;;;;;;18.27;11.82;;;;;;;13.24;78.00;100262.59;4995103;28;20038;-70
2021/05/05 02:22:57;;;;;;;16.50;11.48;;;;;;;13.18;78.28;100257.28;4999386;28;20030;-68
2021/05/05 02:25:22;;;;;;;13.82;11.77;;;;;;;12.76;79.08;100197.59;5013066;28;20030;-68
2021/05/05 02:27:50;;;;;;;15.18;12.70;;;;;;;13.04;79.30;100246.59;5014166;28;20030;-68
2021/05/05 02:30:17;;;;;;;16.27;13.27;;;;;;;13.08;79.05;100238.03;5014081;28;20033;-69
2021/05/05 02:32:44;;;;;;;14.02;11.98;;;;;;;13.10;78.84;100213.91;5011544;28;20042;-68
2021/05/05 02:35:11;;;;;;;17.77;12.63;;;;;;;13.36;78.40;100223.97;5011612;28;20524;-68
2021/05/05 02:37:37;;;;;;;15.80;12.00;;;;;;;13.50;77.90;100213.06;5011571;28;20077;-68
2021/05/05 02:40:07;;;;;;;16.30;12.52;;;;;;;13.51;77.75;100207.03;5011637;28;20030;-72
2021/05/05 02:42:33;;;;;;;20.30;11.85;;;;;;;13.59;76.83;100223.63;5011640;28;20548;-68
2021/05/05 02:44:59;;;;;;;16.65;12.07;;;;;;;13.45;76.55;100223.34;5011654;28;20117;-67
2021/05/05 02:47:25;;;;;;;15.02;12.65;;;;;;;13.33;77.00;100220.44;5011284;28;20487;-67
2021/05/05 02:49:51;;;;;;;16.70;12.30;;;;;;;13.28;76.79;100222.94;5011369;28;20076;-69
2021/05/05 02:52:16;;;;;;;17.30;12.77;;;;;;;13.47;76.80;100226.84;5011474;28;20049;-73
2021/05/05 02:54:43;;;;;;;16.05;12.23;;;;;;;13.55;76.42;100225.28;5011222;28;20048;-68
2021/05/05 02:57:09;;;;;;;16.42;12.73;;;;;;;13.53;75.90;100216.59;5011449;28;20033;-68
2021/05/05 02:59:34;;;;;;;14.93;12.40;;;;;;;13.65;76.14;100221.16;5011257;28;20045;-68
2021/05/05 03:02:01;;;;;;;15.07;11.43;;;;;;;13.67;75.56;100235.03;5009521;28;20587;-66
2021/05/05 03:04:26;;;;;;;16.90;12.02;;;;;;;13.66;75.78;100237.59;4997059;28;20057;-68
2021/05/05 03:06:53;;;;;;;15.25;11.60;;;;;;;13.63;75.75;100230.59;4993996;28;20405;-69
2021/05/05 03:09:21;;;;;;;15.00;11.80;;;;;;;13.65;75.78;100225.47;4993828;28;20471;-68
2021/05/05 03:11:47;;;;;;;17.45;11.50;;;;;;;13.64;75.63;100214.22;4993722;28;20036;-68
2021/05/05 03:14:13;;;;;;;15.55;11.73;;;;;;;13.77;75.38;100223.13;4993396;28;20133;-71
2021/05/05 03:16:39;;;;;;;15.82;12.25;;;;;;;13.80;75.49;100217.13;5008004;28;20463;-68
2021/05/05 03:19:04;;;;;;;15.85;12.85;;;;;;;13.69;74.96;100176.25;4993828;28;20026;-68
2021/05/05 03:21:30;;;;;;;17.08;12.10;;;;;;;13.79;75.31;100210.19;4993488;28;20480;-68
2021/05/05 03:23:55;;;;;;;15.95;11.77;;;;;;;13.68;75.64;100222.94;4993385;28;20061;-68
2021/05/05 03:26:21;;;;;;;15.20;11.82;;;;;;;13.52;75.10;100200.97;5008575;28;20026;-67
2021/05/05 03:28:46;;;;;;;16.92;11.35;;;;;;;12.95;75.60;100144.47;4993093;28;20038;-68
2021/05/05 03:31:12;;;;;;;16.13;11.50;;;;;;;13.49;76.01;100245.03;4993780;28;20030;-68
2021/05/05 03:33:37;;;;;;;16.05;12.02;;;;;;;13.35;75.97;100204.06;4993544;28;20065;-68
2021/05/05 03:36:03;;;;;;;15.50;11.07;;;;;;;13.38;75.73;100180.84;4993000;28;20096;-68
2021/05/05 03:38:29;;;;;;;16.88;11.43;;;;;;;13.50;75.99;100198.38;5007690;28;20401;-71
2021/05/05 03:40:54;;;;;;;16.50;10.95;;;;;;;13.64;76.30;100232.38;4993299;28;20034;-69
2021/05/05 03:43:20;;;;;;;15.45;11.65;;;;;;;13.45;76.73;100235.44;5009746;28;20476;-68
2021/05/05 03:45:46;;;;;;;19.35;11.27;;;;;;;13.35;76.91;100245.56;5012687;28;20543;-68
2021/05/05 03:48:12;;;;;;;17.73;12.00;;;;;;;13.50;76.62;100246.78;5012826;28;20029;-71
2021/05/05 03:50:38;;;;;;;15.55;11.30;;;;;;;13.41;75.88;100218.94;5012767;28;20033;-70
2021/05/05 03:53:03;;;;;;;14.68;10.82;;;;;;;13.42;76.33;100216.38;5012493;28;20156;-68
2021/05/05 03:55:29;;;;;;;17.20;11.00;;;;;;;13.66;76.15;100242.78;5012566;28;20026;-69
2021/05/05 03:57:55;;;;;;;15.43;10.88;;;;;;;13.63;75.90;100255.69;5012440;28;20108;-68
2021/05/05 04:00:20;;;;;;;15.73;10.77;;;;;;;13.54;76.33;100246.00;5012301;28;20572;-68
2021/05/05 04:02:46;;;;;;;14.82;11.13;;;;;;;13.41;76.68;100248.31;5012428;28;20041;-69
2021/05/05 04:05:12;;;;;;;14.65;11.00;;;;;;;13.20;77.37;100237.47;5012555;28;20121;-68
2021/05/05 04:07:38;;;;;;;19.60;11.07;;;;;;;13.30;77.64;100248.91;5012319;28;20424;-69
2021/05/05 04:10:05;;;;;;;22.08;11.95;;;;;;;13.36;77.42;100241.28;5007711;28;20018;-67
2021/05/05 04:12:30;;;;;;;14.57;10.98;;;;;;;13.21;77.23;100208.09;5010892;28;20555;-70
2021/05/05 04:14:57;;;;;;;18.42;11.70;;;;;;;13.43;76.93;100254.44;5012304;28;20133;-68
2021/05/05 04:17:24;;;;;;;15.23;11.02;;;;;;;13.39;77.24;100243.94;5012259;28;20041;-68
2021/05/05 04:19:52;;;;;;;17.65;11.40;;;;;;;13.48;77.27;100258.81;5012038;28;20034;-68
2021/05/05 04:22:17;;;;;;;17.00;10.68;;;;;;;13.15;77.03;100229.56;5011453;28;20038;-68
2021/05/05 04:24:43;;;;;;;15.85;10.90;;;;;;;13.29;77.61;100249.75;5012010;28;20080;-68
2021/05/05 04:27:08;;;;;;;15.70;11.32;;;;;;;13.50;77.89;100267.53;5011886;28;20030;-68
2021/05/05 04:29:34;;;;;;;14.63;10.43;;;;;;;13.69;77.15;100269.66;5012197;28;20459;-68
2021/05/05 04:32:00;;;;;;;15.40;9.38;;;;;;;13.69;76.60;100272.25;5012186;28;20034;-68
2021/05/05 04:34:26;;;;;;;17.38;9.50;;;;;;;13.70;76.89;100279.19;5011547;28;20080;-68
2021/05/05 04:36:52;;;;;;;17.27;9.30;;;;;;;13.75;75.87;100274.97;5011708;28;20473;-67
2021/05/05 04:39:17;;;;;;;14.50;9.30;;;;;;;13.72;75.51;100256.75;5011663;28;20062;-72
2021/05/05 04:41:43;;;;;;;19.98;10.40;;;;;;;13.83;75.55;100263.88;5011807;28;20036;-68
2021/05/05 04:44:08;;;;;;;19.42;9.93;;;;;;;14.00;75.43;100267.69;5011984;28;20472;-68
2021/05/05 04:46:34;;;;;;;18.52;9.73;;;;;;;14.16;74.54;100255.88;4993466;28;20124;-68
2021/05/05 04:49:00;;;;;;;21.80;10.05;;;;;;;14.34;74.24;100251.88;5010986;28;20488;-67
2021/05/05 04:51:25;;;;;;;31.77;9.85;;;;;;;14.25;74.11;100218.81;5011645;28;20036;-67
2021/05/05 04:53:51;;;;;;;21.05;9.00;;;;;;;14.53;73.16;100259.16;5011755;28;20455;-69
2021/05/05 04:56:17;;;;;;;20.95;7.72;;;;;;;14.69;72.67;100256.81;5011845;28;20397;-67
2021/05/05 04:58:42;;;;;;;17.35;6.47;;;;;;;14.77;73.91;100254.38;5004320;28;20034;-68
2021/05/05 05:01:08;;;;;;;13.13;6.15;;;;;;;14.93;72.21;100242.47;4998510;28;20022;-70
2021/05/05 05:03:33;;;;;;;14.02;6.20;;;;;;;15.15;71.21;100259.28;5011208;28;20022;-68
2021/05/05 05:05:59;;;;;;;10.63;6.32;;;;;;;15.00;70.64;100219.22;5011083;28;20022;-69
2021/05/05 05:08:24;;;;;;;10.52;5.95;;;;;;;15.09;69.95;100212.38;5011464;28;20072;-68
2021/05/05 05:10:50;;;;;;;9.38;5.85;;;;;;;15.47;69.35;100258.88;5009846;28;20107;-71
2021/05/05 05:13:16;;;;;;;10.55;5.80;;;;;;;15.59;68.79;100256.44;5011116;28;20053;-67
2021/05/05 05:15:41;;;;;;;8.77;5.68;;;;;;;15.74;68.89;100254.88;5008687;28;20484;-68
2021/05/05 05:18:06;;;;;;;10.77;5.65;;;;;;;15.84;68.21;100262.84;5011253;28;20037;-68
2021/05/05 05:20:32;;;;;;;15.52;6.22;;;;;;;15.88;68.67;100248.13;5011410;28;20029;-68
2021/05/05 05:22:57;;;;;;;16.23;6.65;;;;;;;15.76;68.18;100216.72;5010727;28;20037;-70
2021/05/05 05:25:27;;;;;;;22.38;6.95;;;;;;;15.91;67.92;100242.94;5005436;28;20064;-70
2021/05/05 05:27:53;;;;;;;10.80;5.90;;;;;;;15.90;67.64;100262.06;5007418;28;20038;-69
2021/05/05 05:30:24;;;;;;;13.95;6.18;;;;;;;15.70;68.61;100264.34;5010906;28;20025;-68
2021/05/05 05:32:50;;;;;;;20.30;6.72;;;;;;;15.34;69.44;100237.03;5008728;28;20060;-68
2021/05/05 05:35:16;;;;;;;21.60;6.38;;;;;;;15.25;69.08;100245.56;5011247;28;20040;-67
2021/05/05 05:37:41;;;;;;;11.90;5.88;;;;;;;15.33;69.39;100275.16;5010800;28;20018;-68
2021/05/05 05:40:08;;;;;;;19.67;6.07;;;;;;;15.28;69.03;100256.00;5010653;28;20077;-66
2021/05/05 05:42:34;;;;;;;13.15;5.53;;;;;;;15.35;67.84;100263.06;5008281;28;20092;-70
2021/05/05 05:45:00;;;;;;;8.85;5.95;;;;;;;15.09;69.48;100273.09;5010554;28;20492;-68
2021/05/05 05:47:26;;;;;;;12.23;5.57;;;;;;;15.19;69.36;100271.50;5011148;28;20472;-70
2021/05/05 05:49:51;;;;;;;13.05;5.68;;;;;;;15.16;68.76;100261.03;5010734;28;20033;-68
2021/05/05 05:52:17;;;;;;;13.80;5.78;;;;;;;15.16;68.93;100264.50;5008234;28;20036;-69
2021/05/05 05:54:43;;;;;;;13.23;5.85;;;;;;;15.04;69.41;100260.00;5009574;28;20036;-68
2021/05/05 05:57:08;;;;;;;13.57;5.45;;;;;;;15.07;69.54;100256.56;5010720;28;20056;-69
2021/05/05 05:59:34;;;;;;;15.93;6.07;;;;;;;15.07;69.81;100259.16;5014652;28;20477;-69
2021/05/05 06:01:59;;;;;;;16.60;6.18;;;;;;;15.12;69.58;100264.44;5014403;28;20038;-69
2021/05/05 06:04:25;;;;;;;16.13;5.70;;;;;;;15.04;69.73;100264.31;5014174;28;20026;-68
2021/05/05 06:06:50;;;;;;;13.93;5.75;;;;;;;15.01;70.46;100279.88;5009255;28;20061;-73
2021/05/05 06:09:16;;;;;;;17.23;5.65;;;;;;;14.88;70.49;100271.88;5014671;28;20037;-69
2021/05/05 06:11:42;;;;;;;17.40;5.80;;;;;;;14.79;71.17;100270.84;5014713;28;20037;-69
2021/05/05 06:14:07;;;;;;;12.35;6.60;;;;;;;14.60;71.91;100244.53;5014717;28;20046;-68
2021/05/05 06:16:33;;;;;;;14.77;6.93;;;;;;;14.72;72.02;100290.69;5013090;28;20439;-69
2021/05/05 06:18:59;;;;;;;12.45;7.07;;;;;;;14.69;72.41;100281.09;5014404;28;20475;-68
2021/05/05 06:21:25;;;;;;;10.95;6.50;;;;;;;14.75;72.36;100288.13;5014399;28;20026;-69
2021/05/05 06:23:51;;;;;;;11.23;7.05;;;;;;;14.75;72.68;100285.50;5014275;28;20045;-69
2021/05/05 06:26:17;;;;;;;11.23;6.32;;;;;;;14.61;72.42;100287.84;5014538;28;20061;-73
2021/05/05 06:28:43;;;;;;;12.80;7.30;;;;;;;14.68;73.75;100279.34;5029697;28;20073;-69
2021/05/05 06:31:08;;;;;;;9.55;6.32;;;;;;;14.80;72.57;100283.00;5014324;28;20037;-70
2021/05/05 06:33:34;;;;;;;11.35;6.40;;;;;;;14.81;70.88;100282.16;5013040;28;20038;-68
2021/05/05 06:35:59;;;;;;;14.02;6.28;;;;;;;14.88;71.03;100297.00;5014230;28;20030;-70
2021/05/05 06:38:25;;;;;;;12.30;6.20;;;;;;;14.74;70.58;100278.56;5014119;28;20163;-71
2021/05/05 06:40:51;;;;;;;13.35;6.75;;;;;;;14.97;70.77;100314.47;5014185;28;20037;-72
2021/05/05 06:43:16;;;;;;;13.38;6.68;;;;;;;15.08;70.25;100309.44;5013933;28;20030;-69
2021/05/05 06:45:42;;;;;;;10.55;6.30;;;;;;;15.20;69.54;100301.81;5013924;28;20135;-69
2021/05/05 06:48:07;;;;;;;19.00;7.53;;;;;;;15.23;70.93;100299.28;5013753;28;20026;-69
2021/05/05 06:50:33;;;;;;;19.73;7.07;;;;;;;15.44;69.51;100301.34;5029179;28;20117;-70
2021/05/05 06:52:58;;;;;;;14.23;6.57;;;;;;;15.52;69.49;100301.44;5013890;28;20101;-68
2021/05/05 06:55:24;;;;;;;15.90;6.47;;;;;;;15.24;69.02;100298.44;5013855;28;20092;-70
2021/05/05 06:57:53;;;;;;;12.57;6.60;;;;;;;15.28;69.17;100288.97;5013877;28;20030;-71
2021/05/05 07:00:19;;;;;;;14.93;7.20;;;;;;;15.47;69.40;100295.28;5013871;28;20072;-70
2021/05/05 07:02:44;;;;;;;15.07;6.90;;;;;;;15.63;68.44;100279.03;5013762;28;20021;-70
2021/05/05 07:05:11;;;;;;;11.50;6.43;;;;;;;15.79;66.92;100281.84;5013633;28;20030;-70
2021/05/05 07:07:36;;;;;;;8.90;5.40;;;;;;;15.80;65.71;100273.16;5013386;28;20507;-69
2021/05/05 07:10:03;;;;;;;14.68;6.20;;;;;;;15.89;67.22;100268.13;5013412;28;20025;-70
2021/05/05 07:12:28;;;;;;;14.70;6.47;;;;;;;15.49;66.27;100286.66;5012753;28;20485;-71
2021/05/05 07:14:54;;;;;;;10.13;5.60;;;;;;;15.44;65.38;100282.22;5013451;28;20037;-72
2021/05/05 07:17:19;;;;;;;10.18;5.22;;;;;;;15.85;65.71;100284.56;5013474;28;20080;-69
2021/05/05 07:19:45;;;;;;;10.68;5.47;;;;;;;16.06;63.76;100270.88;5013355;28;20099;-68
2021/05/05 07:22:11;;;;;;;13.73;5.95;;;;;;;16.21;64.07;100280.59;5013202;28;20026;-70
2021/05/05 07:24:40;;;;;;;11.25;5.38;;;;;;;16.41;63.39;100272.13;5013561;28;20480;-69
2021/05/05 07:27:06;;;;;;;8.82;3.92;;;;;;;16.24;61.78;100283.25;5011970;28;20062;-70
2021/05/05 07:29:31;;;;;;;8.48;4.38;;;;;;;16.10;62.05;100269.19;5013344;28;20061;-69
2021/05/05 07:31:57;;;;;;;10.32;4.55;;;;;;;16.46;60.54;100278.25;5013454;28;20037;-68
2021/05/05 07:34:24;;;;;;;9.13;4.05;;;;;;;16.53;62.37;100272.25;5012926;28;20403;-69
2021/05/05 07:36:50;;;;;;;8.65;4.18;;;;;;;16.33;62.26;100265.09;5012913;28;20022;-71
2021/05/05 07:42:27;;;;;;;9.45;4.30;;;;;;;16.38;62.73;100253.88;5010779;28;20042;-70
2021/05/05 07:47:27;;;;;;;7.97;4.10;;;;;;;16.65;60.28;100261.94;5010715;28;20065;-69
2021/05/05 07:49:55;;;;;;;14.93;4.07;;;;;;;16.36;60.31;100213.91;5010519;28;20468;-69
2021/05/05 07:52:20;;;;;;;7.15;4.20;;;;;;;16.60;60.87;100244.53;5010446;28;20030;-71
2021/05/05 07:54:47;;;;;;;7.93;4.18;;;;;;;16.54;61.52;100244.47;5010445;28;20117;-69
2021/05/05 07:57:13;;;;;;;11.30;5.13;;;;;;;16.62;62.98;100243.69;5010501;28;20084;-69
2021/05/05 07:59:39;;;;;;;7.78;5.30;;;;;;;16.53;62.42;100245.34;5010480;28;20042;-69
2021/05/05 08:02:06;;;;;;;7.72;4.85;;;;;;;16.55;64.39;100234.06;5010107;28;20080;-68
2021/05/05 08:04:32;;;;;;;13.20;7.13;;;;;;;16.53;63.88;100237.50;5010462;28;20034;-69
2021/05/05 08:06:58;;;;;;;10.15;6.20;;;;;;;16.41;62.87;100233.94;5010145;28;20092;-69
2021/05/05 08:09:25;;;;;;;8.02;4.82;;;;;;;16.56;62.44;100235.81;5010126;28;20138;-68
2021/05/05 08:11:51;;;;;;;9.27;4.88;;;;;;;16.46;62.13;100189.66;5010186;28;20413;-74
2021/05/05 08:14:17;;;;;;;7.47;4.82;;;;;;;16.83;61.70;100223.84;5010091;28;20133;-69
2021/05/05 08:16:43;;;;;;;10.10;4.53;;;;;;;16.96;61.19;100217.03;5009264;28;20033;-68
2021/05/05 08:19:08;;;;;;;7.30;3.88;;;;;;;16.93;61.15;100203.97;5017057;28;20038;-71
2021/05/05 08:21:34;;;;;;;6.40;3.97;;;;;;;16.79;61.18;100225.53;5011976;28;20026;-69
2021/05/05 08:23:59;;;;;;;7.50;4.13;;;;;;;16.90;61.21;100219.56;5012359;28;20029;-68
2021/05/05 08:26:27;;;;;;;9.43;4.35;;;;;;;17.09;61.48;100226.66;5011977;28;20053;-69
2021/05/05 08:28:52;;;;;;;10.25;4.20;;;;;;;17.21;59.75;100215.44;5011365;28;20064;-69
2021/05/05 08:31:19;;;;;;;9.95;4.57;;;;;;;17.39;59.29;100229.44;5011801;28;20460;-68
2021/05/05 08:33:45;;;;;;;9.38;4.07;;;;;;;17.34;58.93;100223.34;5010237;28;20069;-69
2021/05/05 08:36:11;;;;;;;9.73;3.92;;;;;;;17.35;58.96;100217.25;5011995;28;20116;-69
2021/05/05 08:38:37;;;;;;;7.93;3.90;;;;;;;17.39;58.80;100213.78;5010881;28;20026;-69
2021/05/05 08:41:04;;;;;;;7.28;3.83;;;;;;;17.40;58.92;100218.16;5012132;28;20475;-69
2021/05/05 08:43:32;;;;;;;8.63;4.20;;;;;;;17.42;58.95;100216.41;5011970;28;20381;-69
2021/05/05 08:46:00;;;;;;;10.27;4.15;;;;;;;17.36;59.33;100209.44;5012135;28;20525;-68
2021/05/05 08:48:26;;;;;;;11.65;4.80;;;;;;;17.32;59.44;100209.41;5007989;28;20026;-69
2021/05/05 08:50:52;;;;;;;6.45;4.30;;;;;;;17.18;58.92;100171.06;5005646;28;20464;-71
2021/05/05 08:53:18;;;;;;;9.45;4.95;;;;;;;17.53;59.57;100203.41;5009350;28;20109;-69
2021/05/05 08:55:43;;;;;;;7.55;4.63;;;;;;;17.51;58.59;100179.91;5011288;28;20081;-68
2021/05/05 08:58:09;;;;;;;10.75;4.57;;;;;;;17.79;57.56;100209.59;5010575;28;20468;-69
2021/05/05 09:00:36;;;;;;;8.32;4.20;;;;;;;17.84;58.00;100198.28;5011288;28;20466;-74
2021/05/05 09:03:05;;;;;;;6.75;4.18;;;;;;;18.00;57.43;100207.94;5011352;28;20062;-70
2021/05/05 09:05:54;;;;;;;9.60;4.55;;;;;;;18.02;57.08;100206.22;5011123;28;20480;-71
2021/05/05 09:08:21;;;;;;;7.10;3.72;;;;;;;18.17;56.97;100197.53;5008529;28;20030;-71
2021/05/05 09:10:57;;;;;;;6.35;4.07;;;;;;;18.34;56.25;100194.06;4998745;28;20042;-68
2021/05/05 09:13:44;;;;;;;8.80;4.50;;;;;;;18.29;56.27;100194.03;4990232;28;20046;-71
2021/05/05 09:16:12;;;;;;;7.43;3.60;;;;;;;18.01;55.40;100191.41;4991429;28;20030;-71
2021/05/05 09:19:07;;;;;;;11.23;4.25;;;;;;;18.11;57.23;100182.69;4991555;28;20113;-73
2021/05/05 09:21:43;;;;;;;9.05;3.88;;;;;;;17.59;58.16;100139.03;5008201;28;20036;-69
2021/05/05 09:24:27;;;;;;;7.80;4.13;;;;;;;17.79;57.13;100156.50;5007338;28;20072;-71
2021/05/05 09:27:14;;;;;;;4.90;3.50;;;;;;;17.67;57.83;100180.84;4991789;28;20037;-69
2021/05/05 09:29:43;;;;;;;7.13;4.10;;;;;;;17.51;58.66;100166.88;4991621;28;20026;-69
2021/05/05 09:32:10;;;;;;;7.40;3.97;;;;;;;17.79;58.61;100174.78;4992117;28;20041;-75
2021/05/05 09:34:36;;;;;;;10.15;3.95;;;;;;;17.80;57.51;100173.91;4993474;28;20034;-69
2021/05/05 09:37:05;;;;;;;10.18;4.88;;;;;;;18.01;56.84;100174.88;4995389;28;20511;-69
2021/05/05 09:39:38;;;;;;;8.37;4.00;;;;;;;18.14;56.05;100160.94;4995411;28;20034;-73
2021/05/05 09:42:24;;;;;;;6.90;3.83;;;;;;;18.24;55.41;100160.09;4995432;28;20311;-68
2021/05/05 09:44:57;;;;;;;9.73;4.07;;;;;;;18.36;55.14;100171.41;5007435;28;20018;-69
2021/05/05 09:47:23;;;;;;;8.38;3.65;;;;;;;18.41;54.61;100162.69;4998452;28;20488;-69
2021/05/05 09:49:49;;;;;;;10.57;3.88;;;;;;;18.33;54.58;100137.41;5014419;28;20058;-71
2021/05/05 09:52:24;;;;;;;16.75;4.57;;;;;;;18.52;54.61;100151.38;5014803;28;20080;-70
2021/05/05 09:54:59;;;;;;;12.55;3.85;;;;;;;18.63;55.20;100146.09;5015668;28;20128;-71
2021/05/05 09:57:28;;;;;;;9.82;4.05;;;;;;;18.80;54.48;100143.47;5028478;28;20093;-71
2021/05/05 10:00:03;;;;;;;6.57;3.60;;;;;;;18.68;54.77;100144.34;5013004;28;20428;-69
2021/05/05 10:02:59;;;;;;;4.43;3.20;;;;;;;18.73;54.10;100137.41;5013692;28;20030;-70
2021/05/05 10:05:31;;;;;;;8.65;3.80;;;;;;;18.83;54.25;100126.03;4989418;28;20057;-71
2021/05/05 10:08:03;;;;;;;12.10;3.55;;;;;;;18.96;54.18;100126.03;4991607;28;20039;-71
2021/05/05 10:10:31;;;;;;;6.97;3.10;;;;;;;19.04;52.79;100119.91;4991518;28;20042;-70
2021/05/05 10:13:01;;;;;;;6.15;3.38;;;;;;;19.16;53.06;100124.19;4991105;28;20580;-72
2021/05/05 10:15:30;;;;;;;7.55;3.65;;;;;;;19.17;52.88;100120.72;4988556;28;20038;-72
2021/05/05 10:17:56;;;;;;;;;;;;;;;19.10;53.17;100112.91;4989225;28;20563;-70
2021/05/05 10:20:25;;;;;;;9.95;3.10;;;;;;;18.85;52.74;100103.34;4980279;28;20057;-72
2021/05/05 10:22:56;;;;;;;4.35;2.80;;;;;;;18.77;53.04;100099.91;4991314;28;20038;-70
2021/05/05 10:25:22;;;;;;;5.28;3.42;;;;;;;18.77;53.93;100105.13;4992215;28;20528;-69
2021/05/05 10:27:48;;;;;;;17.00;3.58;;;;;;;18.92;52.75;100089.41;4986141;28;20424;-69
2021/05/05 10:30:17;;;;;;;7.43;2.75;;;;;;;19.17;52.32;100096.31;4980059;28;20168;-69
2021/05/05 10:32:46;;;;;;;10.40;3.05;;;;;;;19.29;51.50;100090.13;4975069;28;20101;-70
2021/05/05 10:35:17;;;;;;;5.85;2.88;;;;;;;19.36;51.64;100086.59;4945948;28;20140;-72
2021/05/05 10:37:56;;;;;;;6.07;2.95;;;;;;;19.20;51.80;100084.09;4992137;28;20042;-70
2021/05/05 10:40:33;;;;;;;5.47;2.70;;;;;;;19.51;50.06;100083.03;4991916;28;20034;-71
2021/05/05 10:43:02;;;;;;;5.57;2.78;;;;;;;19.91;50.10;100082.78;4990430;28;20520;-71
2021/05/05 10:45:43;;;;;;;4.78;2.72;;;;;;;20.18;50.21;100075.59;5012830;28;20037;-71
2021/05/05 10:48:17;;;;;;;12.07;5.65;;;;;;;20.23;46.74;100046.72;5013804;28;20026;-69
2021/05/05 10:50:51;;;;;;;7.82;3.00;;;;;;;20.45;45.99;100082.31;5010991;28;20032;-71
2021/05/05 10:53:37;;;;;;;7.28;3.08;;;;;;;20.57;45.71;100083.09;5013779;28;20038;-70
2021/05/05 10:56:27;;;;;;;7.47;2.30;;;;;;;20.89;44.82;100074.88;4966787;28;20114;-71
2021/05/05 10:59:08;;;;;;;5.43;2.35;;;;;;;21.26;44.92;100076.16;4965446;28;20662;-72
2021/05/05 11:01:39;;;;;;;4.78;2.88;;;;;;;21.28;47.58;100069.13;4959890;28;20031;-70
2021/05/05 11:04:06;;;;;;;7.03;2.50;;;;;;;21.54;45.85;100062.66;4965785;28;20504;-70
2021/05/05 11:06:35;;;;;;;5.03;2.58;;;;;;;21.83;44.52;100059.59;4963517;28;20039;-72
2021/05/05 11:09:10;;;;;;;9.73;2.83;;;;;;;21.98;44.24;100055.84;4959233;28;20074;-71
2021/05/05 11:11:37;;;;;;;6.90;2.20;;;;;;;21.94;46.00;100044.53;4961150;28;20042;-69
2021/05/05 11:14:02;;;;;;;8.85;3.17;;;;;;;22.18;44.74;100054.66;4946554;28;20051;-69
2021/05/05 11:17:11;;;;;;;6.53;2.42;;;;;;;22.38;44.76;100054.31;4962670;28;20127;-72
2021/05/05 11:19:42;;;;;;;6.07;2.30;;;;;;;22.53;43.73;100048.78;4960356;28;20034;-71
2021/05/05 11:22:33;;;;;;;6.03;2.13;;;;;;;22.67;44.63;100039.72;4959109;28;20189;-71
2021/05/05 11:25:18;;;;;;;7.57;2.20;;;;;;;22.86;40.74;100037.59;4960071;28;20046;-72